createdAt,value
2018-04-25T00:01:54.179Z,12.80
2018-04-25T00:04:21.630Z,12.80
2018-04-25T00:06:49.109Z,12.80
2018-04-25T00:09:17.331Z,12.80
2018-04-25T00:11:44.778Z,12.80
2018-04-25T00:14:12.255Z,12.80
2018-04-25T00:16:39.703Z,12.80
2018-04-25T00:19:07.158Z,12.70
2018-04-25T00:21:34.631Z,12.70
2018-04-25T00:24:02.079Z,12.70
2018-04-25T00:26:29.538Z,12.70
2018-04-25T00:28:57.006Z,12.70
2018-04-25T00:31:24.450Z,12.80
2018-04-25T00:33:51.902Z,12.70
2018-04-25T00:36:19.347Z,12.60
2018-04-25T00:38:46.798Z,12.60
2018-04-25T00:41:14.266Z,12.50
2018-04-25T00:43:41.719Z,12.40
2018-04-25T00:46:09.194Z,12.30
2018-04-25T00:48:36.662Z,12.40
2018-04-25T00:51:04.135Z,12.30
2018-04-25T00:53:32.343Z,12.30
2018-04-25T00:55:59.830Z,12.30
2018-04-25T00:58:27.275Z,12.40
2018-04-25T01:00:54.745Z,12.40
2018-04-25T01:03:22.199Z,12.40
2018-04-25T01:05:49.663Z,12.40
2018-04-25T01:08:17.139Z,12.40
2018-04-25T01:10:44.602Z,12.40
2018-04-25T01:13:12.823Z,12.40
2018-04-25T01:15:40.274Z,12.40
2018-04-25T01:18:07.763Z,12.50
2018-04-25T01:20:35.219Z,12.50
2018-04-25T01:23:08.239Z,12.50
2018-04-25T01:25:39.087Z,12.50
2018-04-25T01:28:06.564Z,12.50
2018-04-25T01:30:39.855Z,12.50
2018-04-25T01:33:07.314Z,12.50
2018-04-25T01:35:34.786Z,12.50
2018-04-25T01:38:03.178Z,12.50
2018-04-25T01:40:30.614Z,12.50
2018-04-25T01:43:06.987Z,12.50
2018-04-25T01:45:47.437Z,12.50
2018-04-25T01:51:27.330Z,12.60
2018-04-25T01:54:06.739Z,12.50
2018-04-25T01:56:46.086Z,12.50
2018-04-25T01:59:25.372Z,12.50
2018-04-25T02:01:52.327Z,12.50
2018-04-25T02:04:19.771Z,12.50
2018-04-25T02:06:47.247Z,12.50
2018-04-25T02:09:14.710Z,12.50
2018-04-25T02:11:42.162Z,12.50
2018-04-25T02:14:09.608Z,12.50
2018-04-25T02:16:37.070Z,12.50
2018-04-25T02:19:05.286Z,12.50
2018-04-25T02:21:32.736Z,12.50
2018-04-25T02:24:00.250Z,12.40
2018-04-25T02:26:27.682Z,12.40
2018-04-25T02:28:55.914Z,12.50
2018-04-25T02:31:23.364Z,12.40
2018-04-25T02:33:50.867Z,12.50
2018-04-25T02:36:18.324Z,12.50
2018-04-25T02:38:46.553Z,12.50
2018-04-25T02:41:14.040Z,12.50
2018-04-25T02:43:41.477Z,12.50
2018-04-25T02:46:08.920Z,12.50
2018-04-25T02:48:36.395Z,12.50
2018-04-25T02:51:03.847Z,12.50
2018-04-25T02:53:31.303Z,12.60
2018-04-25T02:55:58.751Z,12.60
2018-04-25T02:58:26.211Z,12.50
2018-04-25T03:00:53.679Z,12.50
2018-04-25T03:03:21.128Z,12.50
2018-04-25T03:05:48.583Z,12.50
2018-04-25T03:08:16.074Z,12.50
2018-04-25T03:10:43.578Z,12.40
2018-04-25T03:13:11.023Z,12.50
2018-04-25T03:15:38.502Z,12.40
2018-04-25T03:18:05.951Z,12.40
2018-04-25T03:20:33.419Z,12.40
2018-04-25T03:23:00.874Z,12.40
2018-04-25T03:25:28.354Z,12.40
2018-04-25T03:27:56.567Z,12.30
2018-04-25T03:30:24.015Z,12.30
2018-04-25T03:32:51.467Z,12.30
2018-04-25T03:35:18.934Z,12.30
2018-04-25T03:37:46.375Z,12.30
2018-04-25T03:40:13.839Z,12.30
2018-04-25T03:42:41.314Z,12.30
2018-04-25T03:45:08.768Z,12.20
2018-04-25T03:47:36.226Z,12.20
2018-04-25T03:50:04.438Z,12.20
2018-04-25T03:52:31.915Z,12.20
2018-04-25T03:55:00.142Z,12.20
2018-04-25T03:57:27.603Z,12.20
2018-04-25T03:59:55.074Z,12.20
2018-04-25T04:02:22.552Z,12.30
2018-04-25T04:04:50.790Z,12.30
2018-04-25T04:07:18.269Z,12.20
2018-04-25T04:09:45.746Z,12.30
2018-04-25T04:12:13.959Z,12.30
2018-04-25T04:14:41.439Z,12.30
2018-04-25T04:17:08.894Z,12.30
2018-04-25T04:19:36.356Z,12.30
2018-04-25T04:22:03.871Z,12.30
2018-04-25T04:24:31.347Z,12.30
2018-04-25T04:26:58.786Z,12.30
2018-04-25T04:29:26.259Z,12.30
2018-04-25T04:31:53.746Z,12.30
2018-04-25T04:34:21.199Z,12.20
2018-04-25T04:36:48.703Z,12.20
2018-04-25T04:39:16.175Z,12.20
2018-04-25T04:41:43.641Z,12.30
2018-04-25T04:44:11.100Z,12.30
2018-04-25T04:46:38.582Z,12.30
2018-04-25T04:49:06.038Z,12.30
2018-04-25T04:51:33.487Z,12.40
2018-04-25T04:54:00.965Z,12.40
2018-04-25T04:56:29.186Z,12.40
2018-04-25T04:58:56.634Z,12.40
2018-04-25T05:01:24.146Z,12.50
2018-04-25T05:03:51.595Z,12.50
2018-04-25T05:06:19.039Z,12.50
2018-04-25T05:08:46.652Z,12.60
2018-04-25T05:11:14.766Z,12.70
2018-04-25T05:13:42.220Z,12.70
2018-04-25T05:16:09.670Z,12.80
2018-04-25T05:18:37.150Z,12.80
2018-04-25T05:21:04.618Z,12.90
2018-04-25T05:23:32.862Z,13.10
2018-04-25T05:26:00.311Z,13.00
2018-04-25T05:28:27.790Z,13.10
2018-04-25T05:30:55.240Z,13.00
2018-04-25T05:33:22.702Z,13.00
2018-04-25T05:35:50.172Z,13.00
2018-04-25T05:38:18.418Z,12.80
2018-04-25T05:40:45.865Z,12.80
2018-04-25T05:43:13.327Z,12.80
2018-04-25T05:45:40.779Z,12.70
2018-04-25T05:48:08.241Z,12.70
2018-04-25T05:50:35.711Z,12.60
2018-04-25T05:53:03.184Z,12.60
2018-04-25T05:55:30.683Z,12.60
2018-04-25T05:57:58.190Z,12.50
2018-04-25T06:00:25.589Z,12.50
2018-04-25T06:02:53.067Z,12.40
2018-04-25T06:05:20.510Z,12.40
2018-04-25T06:07:47.982Z,12.40
2018-04-25T06:10:15.462Z,12.40
2018-04-25T06:12:42.927Z,12.40
2018-04-25T06:15:10.382Z,12.40
2018-04-25T06:17:37.875Z,12.20
2018-04-25T06:20:05.339Z,12.10
2018-04-25T06:22:32.789Z,12.00
2018-04-25T06:25:00.254Z,11.90
2018-04-25T06:27:27.732Z,11.90
2018-04-25T06:29:55.203Z,11.80
2018-04-25T06:32:22.681Z,11.80
2018-04-25T06:34:50.146Z,11.80
2018-04-25T06:37:18.362Z,11.60
2018-04-25T06:39:45.847Z,11.60
2018-04-25T06:42:13.312Z,11.60
2018-04-25T06:44:40.812Z,11.50
2018-04-25T06:47:08.211Z,11.50
2018-04-25T06:49:35.689Z,11.50
2018-04-25T06:52:03.138Z,11.50
2018-04-25T06:54:30.622Z,11.40
2018-04-25T06:56:58.071Z,11.40
2018-04-25T06:59:26.314Z,11.40
2018-04-25T07:01:53.778Z,11.30
2018-04-25T07:04:21.254Z,11.40
2018-04-25T07:06:49.463Z,11.40
2018-04-25T07:09:16.939Z,11.30
2018-04-25T07:11:44.390Z,11.30
2018-04-25T07:14:11.958Z,11.30
2018-04-25T07:16:39.315Z,11.30
2018-04-25T07:19:06.764Z,11.20
2018-04-25T07:21:34.238Z,11.30
2018-04-25T07:24:01.710Z,11.20
2018-04-25T07:26:29.186Z,11.30
2018-04-25T07:28:57.426Z,11.40
2018-04-25T07:31:24.883Z,11.30
2018-04-25T07:33:52.346Z,11.40
2018-04-25T07:36:19.914Z,11.30
2018-04-25T07:38:48.161Z,11.30
2018-04-25T07:41:15.608Z,11.30
2018-04-25T07:43:43.141Z,11.30
2018-04-25T07:46:10.587Z,11.40
2018-04-25T07:48:38.094Z,11.60
2018-04-25T07:51:06.328Z,11.80
2018-04-25T07:53:33.850Z,11.80
2018-04-25T14:48:19.765Z,21.00
